sensor_id;sensor_type;location;lat;lon;timestamp;P1;durP1;ratioP1;P2;durP2;ratioP2
51451;SDS011;37521;52.020;-1.740;2024-03-07T00:00:48;13.63;;;6.25;;
51451;SDS011;37521;52.020;-1.740;2024-03-07T00:03:21;15.82;;;6.47;;
51451;SDS011;37521;52.020;-1.740;2024-03-07T00:05:52;11.25;;;5.43;;
51451;SDS011;37521;52.020;-1.740;2024-03-07T00:08:20;15.63;;;6.00;;
51451;SDS011;37521;52.020;-1.740;2024-03-07T00:10:49;12.18;;;5.53;;
51451;SDS011;37521;52.020;-1.740;2024-03-07T00:13:17;13.52;;;6.63;;
51451;SDS011;37521;52.020;-1.740;2024-03-07T00:15:46;12.93;;;5.50;;
51451;SDS011;37521;52.020;-1.740;2024-03-07T00:18:15;10.95;;;5.18;;
51451;SDS011;37521;52.020;-1.740;2024-03-07T00:20:43;10.70;;;5.35;;
51451;SDS011;37521;52.020;-1.740;2024-03-07T00:23:13;17.38;;;6.13;;
51451;SDS011;37521;52.020;-1.740;2024-03-07T00:25:43;12.05;;;5.20;;
51451;SDS011;37521;52.020;-1.740;2024-03-07T00:28:13;8.10;;;4.82;;
51451;SDS011;37521;52.020;-1.740;2024-03-07T00:30:44;10.85;;;5.68;;
51451;SDS011;37521;52.020;-1.740;2024-03-07T00:33:14;12.32;;;5.50;;
51451;SDS011;37521;52.020;-1.740;2024-03-07T00:35:43;11.90;;;6.18;;
51451;SDS011;37521;52.020;-1.740;2024-03-07T00:38:12;11.43;;;5.70;;
51451;SDS011;37521;52.020;-1.740;2024-03-07T00:40:42;13.05;;;6.15;;
51451;SDS011;37521;52.020;-1.740;2024-03-07T00:43:10;14.60;;;5.45;;
51451;SDS011;37521;52.020;-1.740;2024-03-07T00:45:39;8.10;;;4.68;;
51451;SDS011;37521;52.020;-1.740;2024-03-07T00:48:08;11.05;;;4.85;;
51451;SDS011;37521;52.020;-1.740;2024-03-07T00:50:38;12.43;;;5.55;;
51451;SDS011;37521;52.020;-1.740;2024-03-07T00:53:09;10.73;;;4.97;;
51451;SDS011;37521;52.020;-1.740;2024-03-07T00:55:39;11.23;;;6.32;;
51451;SDS011;37521;52.020;-1.740;2024-03-07T00:58:08;9.70;;;4.68;;
51451;SDS011;37521;52.020;-1.740;2024-03-07T01:00:37;15.18;;;5.95;;
51451;SDS011;37521;52.020;-1.740;2024-03-07T01:03:09;10.52;;;5.07;;
51451;SDS011;37521;52.020;-1.740;2024-03-07T01:05:40;11.55;;;5.00;;
51451;SDS011;37521;52.020;-1.740;2024-03-07T01:08:09;11.57;;;5.15;;
51451;SDS011;37521;52.020;-1.740;2024-03-07T01:10:38;10.10;;;4.75;;
51451;SDS011;37521;52.020;-1.740;2024-03-07T01:13:08;9.77;;;4.57;;
51451;SDS011;37521;52.020;-1.740;2024-03-07T01:15:45;9.85;;;5.00;;
51451;SDS011;37521;52.020;-1.740;2024-03-07T01:18:15;9.85;;;4.90;;
51451;SDS011;37521;52.020;-1.740;2024-03-07T01:20:45;9.85;;;5.32;;
51451;SDS011;37521;52.020;-1.740;2024-03-07T01:23:14;9.57;;;4.43;;
51451;SDS011;37521;52.020;-1.740;2024-03-07T01:25:44;11.52;;;4.93;;
51451;SDS011;37521;52.020;-1.740;2024-03-07T01:28:12;7.07;;;4.38;;
51451;SDS011;37521;52.020;-1.740;2024-03-07T01:30:41;5.63;;;3.42;;
51451;SDS011;37521;52.020;-1.740;2024-03-07T01:33:10;7.88;;;4.55;;
51451;SDS011;37521;52.020;-1.740;2024-03-07T01:35:39;9.70;;;4.70;;
51451;SDS011;37521;52.020;-1.740;2024-03-07T01:38:07;8.45;;;4.45;;
51451;SDS011;37521;52.020;-1.740;2024-03-07T01:40:37;10.10;;;4.55;;
51451;SDS011;37521;52.020;-1.740;2024-03-07T01:43:08;8.57;;;4.28;;
51451;SDS011;37521;52.020;-1.740;2024-03-07T01:45:37;8.02;;;4.75;;
51451;SDS011;37521;52.020;-1.740;2024-03-07T01:48:07;7.78;;;3.75;;
51451;SDS011;37521;52.020;-1.740;2024-03-07T01:50:38;11.93;;;5.35;;
51451;SDS011;37521;52.020;-1.740;2024-03-07T01:53:07;10.13;;;4.82;;
51451;SDS011;37521;52.020;-1.740;2024-03-07T01:55:39;9.60;;;4.55;;
51451;SDS011;37521;52.020;-1.740;2024-03-07T01:58:10;11.20;;;4.93;;
51451;SDS011;37521;52.020;-1.740;2024-03-07T02:00:46;10.57;;;5.15;;
51451;SDS011;37521;52.020;-1.740;2024-03-07T02:03:15;14.85;;;5.60;;
51451;SDS011;37521;52.020;-1.740;2024-03-07T02:05:44;11.02;;;4.82;;
51451;SDS011;37521;52.020;-1.740;2024-03-07T02:08:13;8.90;;;4.60;;
51451;SDS011;37521;52.020;-1.740;2024-03-07T02:10:42;10.02;;;5.25;;
51451;SDS011;37521;52.020;-1.740;2024-03-07T02:13:12;11.82;;;4.85;;
51451;SDS011;37521;52.020;-1.740;2024-03-07T02:15:40;10.90;;;4.95;;
51451;SDS011;37521;52.020;-1.740;2024-03-07T02:18:10;9.73;;;5.03;;
51451;SDS011;37521;52.020;-1.740;2024-03-07T02:20:43;11.13;;;5.40;;
51451;SDS011;37521;52.020;-1.740;2024-03-07T02:23:13;11.02;;;4.95;;
51451;SDS011;37521;52.020;-1.740;2024-03-07T02:25:42;10.43;;;5.47;;
51451;SDS011;37521;52.020;-1.740;2024-03-07T02:28:11;9.25;;;5.13;;
51451;SDS011;37521;52.020;-1.740;2024-03-07T02:30:40;10.05;;;5.55;;
51451;SDS011;37521;52.020;-1.740;2024-03-07T02:33:08;10.05;;;5.13;;
51451;SDS011;37521;52.020;-1.740;2024-03-07T02:35:39;9.90;;;4.55;;
51451;SDS011;37521;52.020;-1.740;2024-03-07T02:38:09;9.60;;;5.28;;
51451;SDS011;37521;52.020;-1.740;2024-03-07T02:40:37;11.77;;;6.00;;
51451;SDS011;37521;52.020;-1.740;2024-03-07T02:43:06;9.02;;;5.35;;
51451;SDS011;37521;52.020;-1.740;2024-03-07T02:45:35;10.63;;;5.78;;
51451;SDS011;37521;52.020;-1.740;2024-03-07T02:48:04;12.93;;;5.82;;
51451;SDS011;37521;52.020;-1.740;2024-03-07T02:50:37;16.67;;;6.32;;
51451;SDS011;37521;52.020;-1.740;2024-03-07T02:53:06;10.93;;;5.57;;
51451;SDS011;37521;52.020;-1.740;2024-03-07T02:55:36;12.50;;;6.05;;
51451;SDS011;37521;52.020;-1.740;2024-03-07T02:58:04;11.57;;;5.50;;
51451;SDS011;37521;52.020;-1.740;2024-03-07T03:00:33;17.58;;;6.80;;
51451;SDS011;37521;52.020;-1.740;2024-03-07T03:03:02;8.43;;;5.13;;
51451;SDS011;37521;52.020;-1.740;2024-03-07T03:05:31;14.07;;;6.40;;
51451;SDS011;37521;52.020;-1.740;2024-03-07T03:08:00;14.50;;;6.72;;
51451;SDS011;37521;52.020;-1.740;2024-03-07T03:10:29;18.05;;;5.95;;
51451;SDS011;37521;52.020;-1.740;2024-03-07T03:12:59;14.85;;;5.97;;
51451;SDS011;37521;52.020;-1.740;2024-03-07T03:15:28;12.70;;;5.75;;
51451;SDS011;37521;52.020;-1.740;2024-03-07T03:17:58;10.35;;;5.30;;
51451;SDS011;37521;52.020;-1.740;2024-03-07T03:20:28;8.10;;;4.03;;
51451;SDS011;37521;52.020;-1.740;2024-03-07T03:23:02;11.82;;;5.50;;
51451;SDS011;37521;52.020;-1.740;2024-03-07T03:25:46;8.32;;;4.53;;
51451;SDS011;37521;52.020;-1.740;2024-03-07T03:28:18;11.68;;;5.07;;
51451;SDS011;37521;52.020;-1.740;2024-03-07T03:30:48;13.60;;;5.30;;
51451;SDS011;37521;52.020;-1.740;2024-03-07T03:33:18;10.48;;;6.18;;
51451;SDS011;37521;52.020;-1.740;2024-03-07T03:35:47;17.33;;;6.15;;
51451;SDS011;37521;52.020;-1.740;2024-03-07T03:38:16;16.52;;;7.15;;
51451;SDS011;37521;52.020;-1.740;2024-03-07T03:40:47;16.60;;;7.18;;
51451;SDS011;37521;52.020;-1.740;2024-03-07T03:43:16;15.30;;;6.43;;
51451;SDS011;37521;52.020;-1.740;2024-03-07T03:45:46;18.13;;;6.65;;
51451;SDS011;37521;52.020;-1.740;2024-03-07T03:48:15;15.65;;;6.95;;
51451;SDS011;37521;52.020;-1.740;2024-03-07T03:50:44;21.27;;;8.20;;
51451;SDS011;37521;52.020;-1.740;2024-03-07T03:53:14;13.75;;;7.03;;
51451;SDS011;37521;52.020;-1.740;2024-03-07T03:55:44;15.73;;;7.20;;
51451;SDS011;37521;52.020;-1.740;2024-03-07T03:58:13;15.35;;;6.47;;
51451;SDS011;37521;52.020;-1.740;2024-03-07T04:00:41;16.02;;;6.72;;
51451;SDS011;37521;52.020;-1.740;2024-03-07T04:03:11;22.25;;;9.02;;
51451;SDS011;37521;52.020;-1.740;2024-03-07T04:05:40;22.17;;;7.88;;
51451;SDS011;37521;52.020;-1.740;2024-03-07T04:08:09;18.63;;;8.15;;
51451;SDS011;37521;52.020;-1.740;2024-03-07T04:10:37;16.58;;;7.18;;
51451;SDS011;37521;52.020;-1.740;2024-03-07T04:13:06;17.02;;;7.15;;
51451;SDS011;37521;52.020;-1.740;2024-03-07T04:15:35;19.30;;;7.60;;
51451;SDS011;37521;52.020;-1.740;2024-03-07T04:18:07;19.05;;;6.93;;
51451;SDS011;37521;52.020;-1.740;2024-03-07T04:20:37;15.65;;;6.10;;
51451;SDS011;37521;52.020;-1.740;2024-03-07T04:23:07;17.30;;;6.60;;
51451;SDS011;37521;52.020;-1.740;2024-03-07T04:25:38;19.92;;;7.13;;
51451;SDS011;37521;52.020;-1.740;2024-03-07T04:28:08;14.73;;;6.07;;
51451;SDS011;37521;52.020;-1.740;2024-03-07T04:30:37;12.27;;;6.30;;
51451;SDS011;37521;52.020;-1.740;2024-03-07T04:33:05;11.95;;;5.30;;
51451;SDS011;37521;52.020;-1.740;2024-03-07T04:35:34;10.75;;;4.72;;
51451;SDS011;37521;52.020;-1.740;2024-03-07T04:38:04;10.13;;;5.45;;
51451;SDS011;37521;52.020;-1.740;2024-03-07T04:40:38;15.50;;;5.80;;
51451;SDS011;37521;52.020;-1.740;2024-03-07T04:43:07;13.20;;;4.53;;
51451;SDS011;37521;52.020;-1.740;2024-03-07T04:45:35;10.32;;;4.40;;
51451;SDS011;37521;52.020;-1.740;2024-03-07T04:48:04;9.15;;;4.13;;
51451;SDS011;37521;52.020;-1.740;2024-03-07T04:50:35;10.95;;;4.60;;
51451;SDS011;37521;52.020;-1.740;2024-03-07T04:53:05;10.10;;;3.97;;
51451;SDS011;37521;52.020;-1.740;2024-03-07T04:55:34;11.07;;;4.65;;
51451;SDS011;37521;52.020;-1.740;2024-03-07T04:58:02;11.27;;;4.25;;
51451;SDS011;37521;52.020;-1.740;2024-03-07T05:00:32;10.65;;;5.03;;
51451;SDS011;37521;52.020;-1.740;2024-03-07T05:03:00;12.48;;;4.65;;
51451;SDS011;37521;52.020;-1.740;2024-03-07T05:05:29;9.77;;;4.55;;
51451;SDS011;37521;52.020;-1.740;2024-03-07T05:07:58;15.38;;;5.85;;
51451;SDS011;37521;52.020;-1.740;2024-03-07T05:10:28;13.73;;;4.55;;
51451;SDS011;37521;52.020;-1.740;2024-03-07T05:12:58;12.82;;;5.18;;
51451;SDS011;37521;52.020;-1.740;2024-03-07T05:15:27;8.95;;;4.00;;
51451;SDS011;37521;52.020;-1.740;2024-03-07T05:17:55;10.05;;;4.45;;
51451;SDS011;37521;52.020;-1.740;2024-03-07T05:20:25;9.50;;;4.55;;
51451;SDS011;37521;52.020;-1.740;2024-03-07T05:22:55;12.23;;;5.22;;
51451;SDS011;37521;52.020;-1.740;2024-03-07T05:25:25;14.40;;;5.82;;
51451;SDS011;37521;52.020;-1.740;2024-03-07T05:27:55;13.77;;;5.63;;
51451;SDS011;37521;52.020;-1.740;2024-03-07T05:30:25;11.85;;;4.90;;
51451;SDS011;37521;52.020;-1.740;2024-03-07T05:32:55;10.68;;;4.32;;
51451;SDS011;37521;52.020;-1.740;2024-03-07T05:35:25;10.93;;;4.63;;
51451;SDS011;37521;52.020;-1.740;2024-03-07T05:37:56;15.63;;;6.88;;
51451;SDS011;37521;52.020;-1.740;2024-03-07T05:40:28;12.18;;;5.90;;
51451;SDS011;37521;52.020;-1.740;2024-03-07T05:43:00;13.38;;;5.63;;
51451;SDS011;37521;52.020;-1.740;2024-03-07T05:45:28;14.25;;;6.38;;
51451;SDS011;37521;52.020;-1.740;2024-03-07T05:47:58;12.27;;;4.95;;
51451;SDS011;37521;52.020;-1.740;2024-03-07T05:50:43;14.23;;;5.82;;
51451;SDS011;37521;52.020;-1.740;2024-03-07T05:53:13;12.15;;;4.63;;
51451;SDS011;37521;52.020;-1.740;2024-03-07T05:55:42;13.73;;;4.72;;
51451;SDS011;37521;52.020;-1.740;2024-03-07T05:58:14;12.90;;;5.80;;
51451;SDS011;37521;52.020;-1.740;2024-03-07T06:00:43;13.02;;;5.70;;
51451;SDS011;37521;52.020;-1.740;2024-03-07T06:03:16;12.23;;;4.50;;
51451;SDS011;37521;52.020;-1.740;2024-03-07T06:05:46;16.48;;;6.60;;
51451;SDS011;37521;52.020;-1.740;2024-03-07T06:08:16;16.10;;;6.93;;
51451;SDS011;37521;52.020;-1.740;2024-03-07T06:10:45;11.02;;;5.20;;
51451;SDS011;37521;52.020;-1.740;2024-03-07T06:13:15;11.93;;;5.47;;
51451;SDS011;37521;52.020;-1.740;2024-03-07T06:15:46;14.73;;;5.20;;
51451;SDS011;37521;52.020;-1.740;2024-03-07T06:18:15;17.95;;;6.80;;
51451;SDS011;37521;52.020;-1.740;2024-03-07T06:20:44;15.82;;;5.93;;
51451;SDS011;37521;52.020;-1.740;2024-03-07T06:23:13;15.90;;;6.40;;
51451;SDS011;37521;52.020;-1.740;2024-03-07T06:25:43;16.90;;;5.80;;
51451;SDS011;37521;52.020;-1.740;2024-03-07T06:28:19;17.65;;;6.63;;
51451;SDS011;37521;52.020;-1.740;2024-03-07T06:30:48;18.95;;;7.15;;
51451;SDS011;37521;52.020;-1.740;2024-03-07T06:33:17;14.52;;;6.75;;
51451;SDS011;37521;52.020;-1.740;2024-03-07T06:38:20;18.35;;;6.40;;
51451;SDS011;37521;52.020;-1.740;2024-03-07T06:40:49;12.90;;;6.78;;
51451;SDS011;37521;52.020;-1.740;2024-03-07T06:43:31;21.15;;;8.10;;
51451;SDS011;37521;52.020;-1.740;2024-03-07T06:46:00;21.60;;;8.13;;
51451;SDS011;37521;52.020;-1.740;2024-03-07T06:48:29;18.33;;;7.53;;
51451;SDS011;37521;52.020;-1.740;2024-03-07T06:50:58;23.90;;;7.55;;
51451;SDS011;37521;52.020;-1.740;2024-03-07T06:53:27;18.90;;;8.60;;
51451;SDS011;37521;52.020;-1.740;2024-03-07T06:55:56;17.75;;;7.40;;
51451;SDS011;37521;52.020;-1.740;2024-03-07T06:58:27;22.58;;;9.50;;
51451;SDS011;37521;52.020;-1.740;2024-03-07T07:01:00;22.33;;;8.50;;
51451;SDS011;37521;52.020;-1.740;2024-03-07T07:03:34;18.63;;;7.32;;
51451;SDS011;37521;52.020;-1.740;2024-03-07T07:06:02;21.20;;;9.10;;
51451;SDS011;37521;52.020;-1.740;2024-03-07T07:08:32;22.33;;;8.55;;
51451;SDS011;37521;52.020;-1.740;2024-03-07T07:11:01;25.92;;;9.35;;
51451;SDS011;37521;52.020;-1.740;2024-03-07T07:13:31;23.08;;;8.02;;
51451;SDS011;37521;52.020;-1.740;2024-03-07T07:16:01;26.48;;;9.60;;
51451;SDS011;37521;52.020;-1.740;2024-03-07T07:18:30;22.35;;;9.63;;
51451;SDS011;37521;52.020;-1.740;2024-03-07T07:20:59;23.83;;;7.90;;
51451;SDS011;37521;52.020;-1.740;2024-03-07T07:23:30;20.85;;;8.70;;
51451;SDS011;37521;52.020;-1.740;2024-03-07T07:26:02;24.73;;;8.57;;
51451;SDS011;37521;52.020;-1.740;2024-03-07T07:28:32;24.52;;;9.20;;
51451;SDS011;37521;52.020;-1.740;2024-03-07T07:31:04;25.35;;;8.95;;
51451;SDS011;37521;52.020;-1.740;2024-03-07T07:33:33;25.98;;;10.52;;
51451;SDS011;37521;52.020;-1.740;2024-03-07T07:36:03;25.65;;;8.73;;
51451;SDS011;37521;52.020;-1.740;2024-03-07T07:38:32;27.50;;;10.07;;
51451;SDS011;37521;52.020;-1.740;2024-03-07T07:41:01;27.05;;;9.38;;
51451;SDS011;37521;52.020;-1.740;2024-03-07T07:43:30;24.58;;;10.13;;
51451;SDS011;37521;52.020;-1.740;2024-03-07T07:46:10;27.77;;;9.70;;
51451;SDS011;37521;52.020;-1.740;2024-03-07T07:48:39;24.40;;;9.68;;
51451;SDS011;37521;52.020;-1.740;2024-03-07T07:51:08;26.25;;;8.80;;
51451;SDS011;37521;52.020;-1.740;2024-03-07T07:53:37;27.50;;;9.32;;
51451;SDS011;37521;52.020;-1.740;2024-03-07T07:56:07;31.45;;;10.07;;
51451;SDS011;37521;52.020;-1.740;2024-03-07T07:58:36;26.55;;;10.02;;
51451;SDS011;37521;52.020;-1.740;2024-03-07T08:01:04;25.10;;;9.23;;
51451;SDS011;37521;52.020;-1.740;2024-03-07T08:03:36;23.67;;;9.77;;
51451;SDS011;37521;52.020;-1.740;2024-03-07T08:06:07;23.42;;;9.73;;
51451;SDS011;37521;52.020;-1.740;2024-03-07T08:08:36;24.30;;;9.52;;
51451;SDS011;37521;52.020;-1.740;2024-03-07T08:11:06;29.25;;;10.65;;
51451;SDS011;37521;52.020;-1.740;2024-03-07T08:13:35;25.33;;;9.63;;
51451;SDS011;37521;52.020;-1.740;2024-03-07T08:16:04;31.17;;;10.73;;
51451;SDS011;37521;52.020;-1.740;2024-03-07T08:18:33;27.52;;;10.73;;
51451;SDS011;37521;52.020;-1.740;2024-03-07T08:21:03;32.92;;;10.02;;
51451;SDS011;37521;52.020;-1.740;2024-03-07T08:23:33;23.95;;;8.93;;
51451;SDS011;37521;52.020;-1.740;2024-03-07T08:26:01;30.40;;;9.95;;
51451;SDS011;37521;52.020;-1.740;2024-03-07T08:28:32;26.77;;;10.38;;
51451;SDS011;37521;52.020;-1.740;2024-03-07T08:31:01;40.00;;;10.93;;
51451;SDS011;37521;52.020;-1.740;2024-03-07T08:33:31;32.38;;;10.30;;
51451;SDS011;37521;52.020;-1.740;2024-03-07T08:36:00;33.03;;;12.48;;
51451;SDS011;37521;52.020;-1.740;2024-03-07T08:38:30;35.72;;;12.57;;
51451;SDS011;37521;52.020;-1.740;2024-03-07T08:41:00;27.10;;;10.05;;
51451;SDS011;37521;52.020;-1.740;2024-03-07T08:43:28;25.38;;;9.32;;
51451;SDS011;37521;52.020;-1.740;2024-03-07T08:45:57;38.35;;;11.80;;
51451;SDS011;37521;52.020;-1.740;2024-03-07T08:48:27;24.92;;;9.52;;
51451;SDS011;37521;52.020;-1.740;2024-03-07T08:50:56;30.55;;;11.30;;
51451;SDS011;37521;52.020;-1.740;2024-03-07T08:53:27;28.77;;;9.98;;
51451;SDS011;37521;52.020;-1.740;2024-03-07T08:55:59;28.88;;;10.25;;
51451;SDS011;37521;52.020;-1.740;2024-03-07T08:58:29;31.92;;;11.00;;
51451;SDS011;37521;52.020;-1.740;2024-03-07T09:00:59;33.28;;;11.32;;
51451;SDS011;37521;52.020;-1.740;2024-03-07T09:03:28;37.85;;;12.52;;
51451;SDS011;37521;52.020;-1.740;2024-03-07T09:05:57;36.42;;;11.93;;
51451;SDS011;37521;52.020;-1.740;2024-03-07T09:08:27;38.55;;;11.73;;
51451;SDS011;37521;52.020;-1.740;2024-03-07T09:10:59;37.13;;;11.57;;
51451;SDS011;37521;52.020;-1.740;2024-03-07T09:13:28;30.85;;;11.30;;
51451;SDS011;37521;52.020;-1.740;2024-03-07T09:15:57;27.65;;;10.32;;
51451;SDS011;37521;52.020;-1.740;2024-03-07T09:21:00;22.35;;;9.88;;
51451;SDS011;37521;52.020;-1.740;2024-03-07T09:23:29;26.70;;;9.73;;
51451;SDS011;37521;52.020;-1.740;2024-03-07T09:25:59;25.33;;;8.30;;
51451;SDS011;37521;52.020;-1.740;2024-03-07T09:28:29;36.92;;;12.48;;
51451;SDS011;37521;52.020;-1.740;2024-03-07T09:31:00;29.52;;;10.43;;
51451;SDS011;37521;52.020;-1.740;2024-03-07T09:33:28;29.02;;;11.00;;
51451;SDS011;37521;52.020;-1.740;2024-03-07T09:35:59;27.20;;;10.48;;
51451;SDS011;37521;52.020;-1.740;2024-03-07T09:38:29;36.40;;;13.45;;
51451;SDS011;37521;52.020;-1.740;2024-03-07T09:41:01;25.42;;;9.82;;
51451;SDS011;37521;52.020;-1.740;2024-03-07T09:43:30;31.65;;;12.30;;
51451;SDS011;37521;52.020;-1.740;2024-03-07T09:46:03;34.30;;;12.35;;
51451;SDS011;37521;52.020;-1.740;2024-03-07T09:48:34;30.80;;;12.73;;
51451;SDS011;37521;52.020;-1.740;2024-03-07T09:51:03;37.22;;;12.48;;
51451;SDS011;37521;52.020;-1.740;2024-03-07T09:53:36;36.33;;;12.90;;
51451;SDS011;37521;52.020;-1.740;2024-03-07T09:56:07;34.38;;;11.88;;
51451;SDS011;37521;52.020;-1.740;2024-03-07T09:58:37;26.17;;;10.10;;
51451;SDS011;37521;52.020;-1.740;2024-03-07T10:01:08;35.40;;;11.15;;
51451;SDS011;37521;52.020;-1.740;2024-03-07T10:03:39;26.92;;;9.88;;
51451;SDS011;37521;52.020;-1.740;2024-03-07T10:06:12;33.50;;;11.95;;
51451;SDS011;37521;52.020;-1.740;2024-03-07T10:08:42;29.75;;;10.57;;
51451;SDS011;37521;52.020;-1.740;2024-03-07T10:11:13;31.45;;;10.57;;
51451;SDS011;37521;52.020;-1.740;2024-03-07T10:13:42;29.73;;;10.02;;
51451;SDS011;37521;52.020;-1.740;2024-03-07T10:16:15;24.27;;;9.13;;
51451;SDS011;37521;52.020;-1.740;2024-03-07T10:18:45;23.88;;;9.95;;
51451;SDS011;37521;52.020;-1.740;2024-03-07T10:21:14;35.55;;;10.85;;
51451;SDS011;37521;52.020;-1.740;2024-03-07T10:23:45;29.60;;;10.60;;
51451;SDS011;37521;52.020;-1.740;2024-03-07T10:26:15;29.20;;;10.68;;
51451;SDS011;37521;52.020;-1.740;2024-03-07T10:28:44;33.50;;;11.05;;
51451;SDS011;37521;52.020;-1.740;2024-03-07T10:31:27;28.00;;;9.38;;
51451;SDS011;37521;52.020;-1.740;2024-03-07T10:33:59;24.10;;;9.07;;
51451;SDS011;37521;52.020;-1.740;2024-03-07T10:36:28;30.30;;;10.73;;
51451;SDS011;37521;52.020;-1.740;2024-03-07T10:38:58;25.67;;;10.20;;
51451;SDS011;37521;52.020;-1.740;2024-03-07T10:41:41;30.02;;;10.18;;
51451;SDS011;37521;52.020;-1.740;2024-03-07T10:44:16;19.52;;;8.93;;
51451;SDS011;37521;52.020;-1.740;2024-03-07T10:46:51;36.35;;;10.82;;
51451;SDS011;37521;52.020;-1.740;2024-03-07T10:49:21;25.23;;;10.95;;
51451;SDS011;37521;52.020;-1.740;2024-03-07T10:51:55;28.60;;;9.88;;
51451;SDS011;37521;52.020;-1.740;2024-03-07T10:54:34;30.25;;;10.43;;
51451;SDS011;37521;52.020;-1.740;2024-03-07T10:57:20;28.40;;;10.88;;
51451;SDS011;37521;52.020;-1.740;2024-03-07T10:59:57;29.05;;;11.88;;
51451;SDS011;37521;52.020;-1.740;2024-03-07T11:02:51;26.90;;;8.93;;
51451;SDS011;37521;52.020;-1.740;2024-03-07T11:05:24;31.23;;;10.65;;
51451;SDS011;37521;52.020;-1.740;2024-03-07T11:10:30;29.20;;;11.97;;
51451;SDS011;37521;52.020;-1.740;2024-03-07T11:13:01;32.92;;;11.02;;
51451;SDS011;37521;52.020;-1.740;2024-03-07T11:15:32;33.58;;;13.25;;
51451;SDS011;37521;52.020;-1.740;2024-03-07T11:18:02;39.65;;;11.07;;
51451;SDS011;37521;52.020;-1.740;2024-03-07T11:20:34;40.45;;;13.30;;
51451;SDS011;37521;52.020;-1.740;2024-03-07T11:26:01;36.47;;;12.27;;
51451;SDS011;37521;52.020;-1.740;2024-03-07T11:28:36;35.55;;;13.13;;
51451;SDS011;37521;52.020;-1.740;2024-03-07T11:31:09;35.85;;;11.82;;
51451;SDS011;37521;52.020;-1.740;2024-03-07T11:33:41;34.10;;;11.80;;
51451;SDS011;37521;52.020;-1.740;2024-03-07T11:36:11;31.77;;;11.95;;
51451;SDS011;37521;52.020;-1.740;2024-03-07T11:38:44;32.83;;;11.43;;
51451;SDS011;37521;52.020;-1.740;2024-03-07T11:41:14;35.70;;;12.93;;
51451;SDS011;37521;52.020;-1.740;2024-03-07T11:43:48;34.85;;;13.27;;
51451;SDS011;37521;52.020;-1.740;2024-03-07T11:46:17;36.63;;;13.10;;
51451;SDS011;37521;52.020;-1.740;2024-03-07T11:48:48;28.45;;;11.15;;
51451;SDS011;37521;52.020;-1.740;2024-03-07T11:51:17;30.83;;;11.30;;
51451;SDS011;37521;52.020;-1.740;2024-03-07T11:53:48;36.70;;;12.55;;
51451;SDS011;37521;52.020;-1.740;2024-03-07T11:56:18;34.75;;;11.00;;
51451;SDS011;37521;52.020;-1.740;2024-03-07T11:58:48;34.45;;;13.23;;
51451;SDS011;37521;52.020;-1.740;2024-03-07T12:01:21;38.45;;;11.00;;
51451;SDS011;37521;52.020;-1.740;2024-03-07T12:03:52;39.83;;;13.32;;
51451;SDS011;37521;52.020;-1.740;2024-03-07T12:06:23;36.30;;;12.43;;
51451;SDS011;37521;52.020;-1.740;2024-03-07T12:08:52;28.60;;;10.50;;
51451;SDS011;37521;52.020;-1.740;2024-03-07T12:11:21;30.88;;;11.77;;
51451;SDS011;37521;52.020;-1.740;2024-03-07T12:13:54;36.85;;;13.05;;
51451;SDS011;37521;52.020;-1.740;2024-03-07T12:16:23;37.35;;;13.52;;
51451;SDS011;37521;52.020;-1.740;2024-03-07T12:18:56;29.00;;;10.10;;
51451;SDS011;37521;52.020;-1.740;2024-03-07T12:21:25;42.38;;;12.82;;
51451;SDS011;37521;52.020;-1.740;2024-03-07T12:23:54;33.13;;;12.32;;
51451;SDS011;37521;52.020;-1.740;2024-03-07T12:26:23;33.78;;;12.05;;
51451;SDS011;37521;52.020;-1.740;2024-03-07T12:28:56;49.38;;;15.27;;
51451;SDS011;37521;52.020;-1.740;2024-03-07T12:31:38;44.20;;;14.05;;
51451;SDS011;37521;52.020;-1.740;2024-03-07T12:34:07;42.00;;;13.77;;
51451;SDS011;37521;52.020;-1.740;2024-03-07T12:36:37;47.13;;;14.05;;
51451;SDS011;37521;52.020;-1.740;2024-03-07T12:39:21;47.30;;;15.15;;
51451;SDS011;37521;52.020;-1.740;2024-03-07T12:41:52;38.63;;;13.65;;
51451;SDS011;37521;52.020;-1.740;2024-03-07T12:44:23;45.70;;;13.82;;
51451;SDS011;37521;52.020;-1.740;2024-03-07T12:46:52;53.03;;;16.45;;
51451;SDS011;37521;52.020;-1.740;2024-03-07T12:49:23;47.28;;;16.13;;
51451;SDS011;37521;52.020;-1.740;2024-03-07T12:51:54;47.60;;;15.27;;
51451;SDS011;37521;52.020;-1.740;2024-03-07T12:54:23;42.83;;;14.27;;
51451;SDS011;37521;52.020;-1.740;2024-03-07T12:56:53;50.95;;;17.05;;
51451;SDS011;37521;52.020;-1.740;2024-03-07T12:59:24;42.80;;;14.60;;
51451;SDS011;37521;52.020;-1.740;2024-03-07T13:01:53;39.15;;;14.80;;
51451;SDS011;37521;52.020;-1.740;2024-03-07T13:04:24;45.45;;;16.83;;
51451;SDS011;37521;52.020;-1.740;2024-03-07T13:06:54;60.78;;;17.73;;
51451;SDS011;37521;52.020;-1.740;2024-03-07T13:09:28;60.47;;;17.42;;
51451;SDS011;37521;52.020;-1.740;2024-03-07T13:11:57;53.30;;;17.38;;
51451;SDS011;37521;52.020;-1.740;2024-03-07T13:14:30;51.75;;;17.17;;
51451;SDS011;37521;52.020;-1.740;2024-03-07T13:17:01;59.28;;;18.30;;
51451;SDS011;37521;52.020;-1.740;2024-03-07T13:19:31;60.88;;;18.08;;
51451;SDS011;37521;52.020;-1.740;2024-03-07T13:22:01;55.72;;;15.82;;
51451;SDS011;37521;52.020;-1.740;2024-03-07T13:24:32;60.15;;;17.58;;
51451;SDS011;37521;52.020;-1.740;2024-03-07T13:27:03;49.92;;;16.58;;
51451;SDS011;37521;52.020;-1.740;2024-03-07T13:29:40;55.58;;;18.02;;
51451;SDS011;37521;52.020;-1.740;2024-03-07T13:32:09;56.40;;;17.85;;
51451;SDS011;37521;52.020;-1.740;2024-03-07T13:34:41;50.35;;;15.82;;
51451;SDS011;37521;52.020;-1.740;2024-03-07T13:37:10;57.15;;;16.67;;
51451;SDS011;37521;52.020;-1.740;2024-03-07T13:39:45;50.95;;;17.88;;
51451;SDS011;37521;52.020;-1.740;2024-03-07T13:42:14;48.08;;;18.23;;
51451;SDS011;37521;52.020;-1.740;2024-03-07T13:44:44;58.80;;;17.23;;
51451;SDS011;37521;52.020;-1.740;2024-03-07T13:47:13;58.97;;;17.92;;
51451;SDS011;37521;52.020;-1.740;2024-03-07T13:49:42;54.88;;;17.98;;
51451;SDS011;37521;52.020;-1.740;2024-03-07T13:52:13;48.83;;;16.75;;
51451;SDS011;37521;52.020;-1.740;2024-03-07T13:54:45;48.38;;;16.80;;
51451;SDS011;37521;52.020;-1.740;2024-03-07T13:57:21;49.90;;;15.93;;
51451;SDS011;37521;52.020;-1.740;2024-03-07T14:00:01;52.95;;;17.50;;
51451;SDS011;37521;52.020;-1.740;2024-03-07T14:05:56;52.70;;;18.25;;
51451;SDS011;37521;52.020;-1.740;2024-03-07T14:08:45;52.50;;;17.02;;
51451;SDS011;37521;52.020;-1.740;2024-03-07T14:11:41;44.20;;;16.55;;
51451;SDS011;37521;52.020;-1.740;2024-03-07T14:18:12;49.92;;;15.02;;
51451;SDS011;37521;52.020;-1.740;2024-03-07T14:21:16;46.88;;;15.93;;
51451;SDS011;37521;52.020;-1.740;2024-03-07T14:24:11;40.75;;;15.10;;
51451;SDS011;37521;52.020;-1.740;2024-03-07T14:29:54;39.00;;;13.90;;
51451;SDS011;37521;52.020;-1.740;2024-03-07T14:32:39;45.70;;;15.35;;
51451;SDS011;37521;52.020;-1.740;2024-03-07T14:35:17;41.90;;;14.75;;
51451;SDS011;37521;52.020;-1.740;2024-03-07T14:37:53;44.65;;;14.82;;
51451;SDS011;37521;52.020;-1.740;2024-03-07T14:40:23;41.20;;;14.10;;
51451;SDS011;37521;52.020;-1.740;2024-03-07T14:42:54;40.00;;;15.50;;
51451;SDS011;37521;52.020;-1.740;2024-03-07T14:45:25;37.53;;;13.82;;
51451;SDS011;37521;52.020;-1.740;2024-03-07T14:47:59;39.42;;;14.88;;
51451;SDS011;37521;52.020;-1.740;2024-03-07T14:50:31;37.17;;;14.27;;
51451;SDS011;37521;52.020;-1.740;2024-03-07T14:53:02;38.65;;;13.80;;
51451;SDS011;37521;52.020;-1.740;2024-03-07T14:55:31;38.78;;;13.85;;
51451;SDS011;37521;52.020;-1.740;2024-03-07T14:58:01;35.13;;;13.10;;
51451;SDS011;37521;52.020;-1.740;2024-03-07T15:00:30;30.17;;;12.35;;